Grand Shaftesbury Run Festival
Skip Navigation Links
Results
Course Map
Weekend Results
Details
Smartphone Results App
17 May 2015
HyperLink
Click your name for detailed race data
Page 1 of 3 (146 items)
[1]23
Pos
Bib No
Fav
Share
Print
Name
Time
Chip Time
Category
Cat Pos
Gender
Gen Pos
Pace
164Steve WAY01:15:31.6FinishedOpen1Male110.4 m/hr
2362Peter THOMPSON01:23:21.3FinishedOpen2Male2 9.4 m/hr
3110Owen HARRIES01:25:44.6Finished41-501Male3 9.2 m/hr
420Matthew VAIL01:27:53.0FinishedOpen3Male4 8.9 m/hr
5146Steve GUY01:31:45.3Finished51-601Male5 8.6 m/hr
67Matthew OLDRING01:33:41.9FinishedOpen4Male6 8.4 m/hr
78Mike BETTS01:33:51.0FinishedOpen5Male7 8.4 m/hr
8165Nick KENCHINGTON01:35:36.9Finished51-602Male8 8.2 m/hr
9159Stuart SMITH01:35:44.0FinishedOpen6Male9 8.2 m/hr
1062Pedro GAMITO01:36:12.9FinishedOpen7Male10 8.2 m/hr
1135David STONE01:37:11.1FinishedOpen8Male11 8.1 m/hr
1245Allen LONG01:37:17.4FinishedOpen9Male12 8.1 m/hr
1323Kevin HULSE01:38:14.9FinishedOpen10Male13 8.0 m/hr
1488Oliver HAYES-NEWINGTON01:38:16.3Finished41-502Male14 8.0 m/hr
1571Ed HADDON01:38:25.9Finished41-503Male15 8.0 m/hr
1615Ian WHISKERD01:38:30.9FinishedOpen11Male16 8.0 m/hr
17137HÕkan ERIXON01:39:10.6Finished51-603Male17 7.9 m/hr
18134John MACINNES01:39:12.7Finished51-604Male18 7.9 m/hr
1980Richard DIXON01:39:26.4Finished41-504Male19 7.9 m/hr
20132Mike SIMPSON01:39:49.6Finished51-605Male20 7.9 m/hr
2157Ginny MILLS01:40:38.9FinishedOpen1Female1 7.8 m/hr
22150Michael TREW01:40:39.7Finished51-606Male21 7.8 m/hr
2394Mark DINELEY01:42:31.2Finished41-505Male22 7.7 m/hr
2436Marc HAYTER01:42:44.9FinishedOpen12Male23 7.6 m/hr
2593Dave OWEN01:42:59.5Finished41-506Male24 7.6 m/hr
2630Lee READ01:43:09.6FinishedOpen13Male25 7.6 m/hr
2721Bronwyn MAYO01:43:12.9FinishedOpen2Female2 7.6 m/hr
283Sam FAIRHEAD01:43:25.6FinishedOpen14Male26 7.6 m/hr
2998Matthew INSLEY01:43:45.1Finished41-507Male27 7.6 m/hr
30122Liz GOLDSACK01:43:49.7Finished41-501Female3 7.6 m/hr
31151Sally GILBERT01:43:56.8Finished51-601Female4 7.6 m/hr
32363Michael TIZARD01:43:58.7Finished41-508Male28 7.6 m/hr
33162John FOOT01:44:02.8Finished51-607Male29 7.6 m/hr
34136Kevin GILBERT01:44:08.4Finished51-608Male30 7.5 m/hr
3511Daniel SWYERS-O'BRIEN01:44:42.7FinishedOpen15Male31 7.5 m/hr
3612Nichola WRIGHT01:45:05.1FinishedOpen3Female5 7.5 m/hr
37113Stephen BROOKE01:45:12.0Finished41-509Male32 7.5 m/hr
38158Geoff NEWTON01:45:31.7Finished61-701Male33 7.4 m/hr
3954Simon RIGLER01:45:33.4FinishedOpen16Male34 7.4 m/hr
4053Matthew BRIARS01:45:54.9FinishedOpen17Male35 7.4 m/hr
4160Andy DOWNES01:47:01.9FinishedOpen18Male36 7.3 m/hr
4247Julius NAIM01:47:14.2FinishedOpen19Male37 7.3 m/hr
43133Helen EDBROOKE01:48:07.0Finished51-602Female6 7.3 m/hr
4426Hannah MILLS01:48:17.4FinishedOpen4Female7 7.3 m/hr
4584Kevin SMYTH01:48:22.8Finished41-5010Male38 7.3 m/hr
46117Jean-Paul VAN CAUWELAERT01:48:35.9FinishedOpen20Male39 7.2 m/hr
4796Sarah JORDAN-WHITTAKER01:48:50.7Finished41-502Female8 7.2 m/hr
4875Susan BROWNING01:48:57.9Finished41-503Female9 7.2 m/hr
4922Grant FLETCHER01:49:00.7FinishedOpen21Male40 7.2 m/hr
50160Jenny WALKER-LEACH01:49:29.8FinishedOpen5Female10 7.2 m/hr
Page 1 of 3 (146 items)
[1]23
fb